Stelle, Illinois
Current Conditions -  °F | °C
As of 9:35 AM on Saturday 20 Dec 2014 (Local Time) from KIKK Reporting Station
Overcast Overcast  
Wind Chill: 31°   Ceiling: 2900
Heat Index: 31°   Visibility: 7mi
Dew Point: 28°   Wind: 3mph
Humidity: 86%   Direction: 180°S
Pressure: 30.31"   Gusts: NA
Location:  40.9777°N, 88.1923°W
Report Text: KIKK 201535Z AUTO 18003KT 7SM OVC029 00/M02 A3031 RMK AO2 T10051025
Loading
Personal Weather Stations






























Interactive Weather Map New forecast layout! Learn more

10-Day Weather Forecast

Advertisements
Track Severe Weather on mobile